createdAt,value
2019-04-23T00:00:48.440Z,99375.02
2019-04-23T00:03:12.841Z,99371.55
2019-04-23T00:08:23.325Z,99365.23
2019-04-23T00:10:45.908Z,99365.07
2019-04-23T00:13:05.777Z,99358.73
2019-04-23T00:15:44.755Z,99362.72
2019-04-23T00:18:04.161Z,99359.38
2019-04-23T00:20:36.165Z,99359.10
2019-04-23T00:23:05.063Z,99348.89
2019-04-23T00:28:10.089Z,99347.78
2019-04-23T00:30:36.624Z,99344.85
2019-04-23T00:33:05.323Z,99342.98
2019-04-23T00:35:25.863Z,99345.92
2019-04-23T00:37:54.889Z,99332.73
2019-04-23T00:40:25.930Z,99332.04
2019-04-23T00:42:53.332Z,99328.70
2019-04-23T00:45:26.870Z,99329.53
2019-04-23T00:47:51.388Z,99329.00
2019-04-23T00:52:51.637Z,99321.72
2019-04-23T00:55:26.467Z,99322.90
2019-04-23T00:57:50.541Z,99320.70
2019-04-23T01:00:52.695Z,99315.16
2019-04-23T01:02:49.312Z,99312.99
2019-04-23T01:05:18.661Z,99312.61
2019-04-23T01:07:47.575Z,99319.53
2019-04-23T01:10:13.949Z,99310.55
2019-04-23T01:15:15.711Z,99316.13
2019-04-23T01:17:35.104Z,99308.53
2019-04-23T01:20:04.772Z,99305.48
2019-04-23T01:22:12.556Z,99304.75
2019-04-23T01:24:40.824Z,99301.81
2019-04-23T01:27:46.036Z,99299.16
2019-04-23T01:30:05.064Z,99298.42
2019-04-23T01:32:34.893Z,99299.91
2019-04-23T01:35:09.739Z,99296.18
2019-04-23T01:37:30.506Z,99293.70
2019-04-23T01:39:57.911Z,99289.66
2019-04-23T01:42:35.893Z,99288.08
2019-04-23T01:45:05.241Z,99281.62
2019-04-23T01:47:25.213Z,99272.54
2019-04-23T01:52:24.997Z,99267.64
2019-04-23T01:54:52.009Z,99267.39
2019-04-23T01:57:26.328Z,99258.94
2019-04-23T01:59:46.114Z,99256.91
2019-04-23T02:02:24.529Z,99255.42
2019-04-23T02:04:46.110Z,99253.81
2019-04-23T02:07:19.967Z,99242.56
2019-04-23T02:09:48.410Z,99249.98
2019-04-23T02:12:11.640Z,99243.14
2019-04-23T02:14:48.154Z,99241.10
2019-04-23T02:17:10.194Z,99242.96
2019-04-23T02:19:40.470Z,99237.55
2019-04-23T02:22:03.952Z,99237.46
2019-04-23T02:27:07.341Z,99222.55
2019-04-23T02:29:43.563Z,99222.64
2019-04-23T02:32:21.979Z,99216.84
2019-04-23T02:37:00.350Z,99208.13
2019-04-23T02:39:46.493Z,99217.05
2019-04-23T02:42:19.115Z,99210.36
2019-04-23T02:47:12.752Z,99203.22
2019-04-23T02:49:35.787Z,99202.93
2019-04-23T02:51:59.456Z,99205.20
2019-04-23T02:56:55.715Z,99201.84
2019-04-23T02:59:29.080Z,99195.86
2019-04-23T03:04:32.710Z,99198.13
2019-04-23T03:06:55.988Z,99198.60
2019-04-23T03:09:20.654Z,99196.95
2019-04-23T03:11:54.141Z,99201.41
2019-04-23T03:19:15.284Z,99190.90
2019-04-23T03:26:53.211Z,99184.72
2019-04-23T03:29:26.452Z,99176.84
2019-04-23T03:34:56.354Z,99174.09
2019-04-23T03:38:56.481Z,99169.24
2019-04-23T03:43:57.070Z,99164.39
2019-04-23T03:49:03.838Z,99168.64
2019-04-23T03:59:00.588Z,99160.80
2019-04-23T04:01:30.313Z,99165.58
2019-04-23T04:09:10.561Z,99162.98
2019-04-23T04:11:22.001Z,99151.05
2019-04-23T04:14:03.449Z,99153.40
2019-04-23T04:16:18.254Z,99151.22
2019-04-23T04:18:54.674Z,99158.81
2019-04-23T04:21:27.246Z,99157.13
2019-04-23T04:23:58.224Z,99154.15
2019-04-23T04:26:29.188Z,99152.97
2019-04-23T04:29:00.621Z,99153.20
2019-04-23T04:31:13.801Z,99154.05
2019-04-23T04:36:21.762Z,99145.56
2019-04-23T04:38:44.993Z,99145.44
2019-04-23T04:46:25.393Z,99136.33
2019-04-23T04:51:08.445Z,99128.90
2019-04-23T04:56:14.314Z,99136.12
2019-04-23T04:58:32.289Z,99133.40
2019-04-23T05:03:29.142Z,99129.89
2019-04-23T05:08:29.050Z,99123.02
2019-04-23T05:16:00.543Z,99115.94
2019-04-23T05:23:26.984Z,99116.73
2019-04-23T05:25:42.868Z,99117.87
2019-04-23T05:33:11.623Z,99108.90
2019-04-23T05:36:02.656Z,99113.12
2019-04-23T05:43:12.309Z,99110.35
2019-04-23T05:48:06.732Z,99111.95
2019-04-23T05:50:42.604Z,99105.80
2019-04-23T05:52:59.041Z,99108.66
2019-04-23T05:55:21.827Z,99108.16
2019-04-23T05:57:55.557Z,99115.04
2019-04-23T06:00:26.143Z,99111.53
2019-04-23T06:02:56.143Z,99104.53
2019-04-23T06:05:38.777Z,99104.23
2019-04-23T06:07:49.860Z,99099.70
2019-04-23T06:10:19.756Z,99098.44
2019-04-23T06:12:43.664Z,99098.01
2019-04-23T06:15:20.793Z,99097.41
2019-04-23T06:17:47.442Z,99094.70
2019-04-23T06:20:15.138Z,99094.74
2019-04-23T06:22:42.409Z,99092.16
2019-04-23T06:25:21.397Z,99087.27
2019-04-23T06:27:39.371Z,99084.30
2019-04-23T06:30:15.067Z,99088.60
2019-04-23T06:32:58.021Z,99085.25
2019-04-23T06:35:08.784Z,99077.75
2019-04-23T06:37:49.531Z,99080.51
2019-04-23T06:40:00.405Z,99067.12
2019-04-23T06:42:32.417Z,99077.03
2019-04-23T06:47:27.690Z,99060.73
2019-04-23T06:49:55.666Z,99059.05
2019-04-23T06:52:21.876Z,99068.66
2019-04-23T06:55:09.118Z,99061.19
2019-04-23T06:57:22.341Z,99054.02
2019-04-23T06:59:50.143Z,99046.67
2019-04-23T07:02:22.258Z,99047.95
2019-04-23T07:04:59.496Z,99051.45
2019-04-23T07:07:36.533Z,99050.16
2019-04-23T07:09:47.132Z,99041.69
2019-04-23T07:12:15.165Z,99038.08
2019-04-23T07:17:08.447Z,99040.70
2019-04-23T07:19:44.974Z,99040.30
2019-04-23T07:22:14.450Z,99031.22
2019-04-23T07:24:34.549Z,99035.25
2019-04-23T07:27:03.570Z,99052.30
2019-04-23T07:29:40.394Z,99034.14
2019-04-23T07:32:05.617Z,99037.66
2019-04-23T07:34:39.782Z,99038.30
2019-04-23T07:37:06.960Z,99026.20
2019-04-23T07:39:44.407Z,99030.89
2019-04-23T07:42:10.831Z,99050.11
2019-04-23T07:44:36.811Z,99033.32
2019-04-23T07:47:11.252Z,99033.24
2019-04-23T07:49:31.108Z,99024.00
2019-04-23T07:52:03.498Z,99023.66
2019-04-23T07:54:28.997Z,99018.70
2019-04-23T07:57:02.176Z,99027.77
2019-04-23T07:59:24.907Z,99016.80
2019-04-23T08:02:00.820Z,99008.69
2019-04-23T08:04:27.490Z,99010.06
2019-04-23T08:06:54.263Z,99018.27
2019-04-23T08:09:22.319Z,99009.35
2019-04-23T08:11:49.410Z,99018.28
2019-04-23T08:14:31.974Z,99002.61
2019-04-23T08:16:36.766Z,98998.84
2019-04-23T08:19:18.851Z,98997.26
2019-04-23T08:21:40.283Z,98995.73
2019-04-23T08:24:06.598Z,99006.34
2019-04-23T08:26:42.487Z,98980.77
2019-04-23T08:31:38.087Z,98992.06
2019-04-23T08:34:16.817Z,98992.06
2019-04-23T08:36:37.860Z,99000.86
2019-04-23T08:39:05.448Z,98990.88
2019-04-23T08:41:46.313Z,99016.59
2019-04-23T08:44:07.042Z,98985.41
2019-04-23T08:46:43.412Z,98986.87
2019-04-23T08:49:05.070Z,98983.80
2019-04-23T08:53:57.099Z,98970.11
2019-04-23T08:56:38.548Z,98980.39
2019-04-23T08:58:53.592Z,98969.69
2019-04-23T09:01:24.869Z,98972.87
2019-04-23T09:03:49.347Z,98974.16
2019-04-23T09:06:20.211Z,98947.88
2019-04-23T09:09:04.292Z,98979.78
2019-04-23T09:16:17.903Z,98958.95
2019-04-23T09:18:45.985Z,98951.86
2019-04-23T09:21:15.805Z,98969.02
2019-04-23T09:23:49.348Z,98964.50
2019-04-23T09:26:08.299Z,98964.97
2019-04-23T09:31:26.340Z,98958.47
2019-04-23T09:36:18.153Z,98942.78
2019-04-23T09:38:46.782Z,98944.41
2019-04-23T09:43:37.040Z,98941.58
2019-04-23T09:46:12.297Z,98913.22
2019-04-23T09:48:48.552Z,98938.78
2019-04-23T09:51:09.948Z,98934.97
2019-04-23T09:53:37.367Z,98940.58
2019-04-23T09:56:01.275Z,98930.84
2019-04-23T09:58:28.815Z,98928.67
2019-04-23T10:00:54.486Z,98915.84
2019-04-23T10:03:19.603Z,98921.11
2019-04-23T10:05:45.083Z,98926.08
2019-04-23T10:08:10.788Z,98916.81
2019-04-23T10:10:30.272Z,98917.82
2019-04-23T10:12:58.118Z,98924.20
2019-04-23T10:15:32.417Z,98956.44
2019-04-23T10:17:54.301Z,98918.35
2019-04-23T10:20:22.524Z,98896.52
2019-04-23T10:22:50.484Z,98925.89
2019-04-23T10:25:17.484Z,98928.67
2019-04-23T10:27:45.339Z,98913.58
2019-04-23T10:30:14.488Z,98921.38
2019-04-23T10:32:41.504Z,98907.16
2019-04-23T10:35:20.487Z,98911.28
2019-04-23T10:37:48.151Z,98916.98
2019-04-23T10:40:11.132Z,98899.00
2019-04-23T10:42:38.452Z,98885.70
2019-04-23T10:45:20.472Z,98910.30
2019-04-23T10:48:07.410Z,98904.68
2019-04-23T10:50:37.447Z,98901.40
2019-04-23T10:53:02.560Z,98924.97
2019-04-23T10:55:34.870Z,98893.77
2019-04-23T10:57:56.837Z,98888.45
2019-04-23T11:00:26.784Z,98905.08
2019-04-23T11:02:47.338Z,98905.83
2019-04-23T11:05:33.289Z,98897.28
2019-04-23T11:07:47.532Z,98881.26
2019-04-23T11:10:17.456Z,98890.44
2019-04-23T11:15:26.694Z,98889.75
2019-04-23T11:17:46.471Z,98894.50
2019-04-23T11:22:50.971Z,98886.94
2019-04-23T11:25:23.999Z,98895.84
2019-04-23T11:30:19.623Z,98882.39
2019-04-23T11:37:47.914Z,98858.59
2019-04-23T11:40:21.147Z,98861.92
2019-04-23T11:42:38.144Z,98882.88
2019-04-23T11:45:10.074Z,98852.78
2019-04-23T11:52:36.070Z,98853.50
2019-04-23T12:02:26.845Z,98837.87
2019-04-23T12:07:27.513Z,98847.30
2019-04-23T12:10:07.277Z,98838.70
2019-04-23T12:14:47.169Z,98847.97
2019-04-23T12:17:21.008Z,98846.89
2019-04-23T12:19:55.805Z,98876.62
2019-04-23T12:22:16.519Z,98858.66
2019-04-23T12:25:04.316Z,98869.42
2019-04-23T12:27:13.736Z,98855.08
2019-04-23T12:29:37.383Z,98859.38
2019-04-23T12:32:27.728Z,98878.30
2019-04-23T12:34:45.446Z,98866.08
2019-04-23T12:37:09.523Z,98879.25
2019-04-23T12:39:34.366Z,98846.02
2019-04-23T12:42:19.758Z,98872.16
2019-04-23T12:44:39.984Z,98866.48
2019-04-23T12:47:02.631Z,98865.15
2019-04-23T12:49:59.141Z,98877.52
2019-04-23T12:52:06.313Z,98867.09
2019-04-23T12:54:41.441Z,98879.02
2019-04-23T12:57:14.148Z,98875.52
2019-04-23T12:59:22.072Z,98890.41
2019-04-23T13:01:55.853Z,98853.85
2019-04-23T13:04:24.957Z,98857.14
2019-04-23T13:06:51.081Z,98855.02
2019-04-23T13:09:33.411Z,98851.25
2019-04-23T13:11:54.483Z,98861.88
2019-04-23T13:14:20.324Z,98834.69
2019-04-23T13:16:53.844Z,98862.01
2019-04-23T13:19:23.847Z,98863.30
2019-04-23T13:22:00.190Z,98889.34
2019-04-23T13:24:12.067Z,98861.40
2019-04-23T13:26:35.509Z,98858.66
2019-04-23T13:29:16.127Z,98858.42
2019-04-23T13:31:34.669Z,98862.95
2019-04-23T13:34:04.332Z,98890.80
2019-04-23T13:36:36.238Z,98864.67
2019-04-23T13:39:02.066Z,98856.92
2019-04-23T13:43:52.635Z,98859.09
2019-04-23T13:46:33.124Z,98867.20
2019-04-23T13:48:56.178Z,98864.86
2019-04-23T13:51:26.902Z,98865.03
2019-04-23T13:53:57.099Z,98852.54
2019-04-23T13:58:59.710Z,98841.92
2019-04-23T14:03:54.106Z,98857.91
2019-04-23T14:06:35.015Z,98862.30
2019-04-23T14:11:23.227Z,98887.25
2019-04-23T14:18:55.915Z,98856.78
2019-04-23T14:21:20.517Z,98850.89
2019-04-23T14:24:03.343Z,98838.99
2019-04-23T14:28:41.782Z,98838.81
2019-04-23T14:33:46.746Z,98831.91
2019-04-23T14:36:07.692Z,98812.87
2019-04-23T14:41:12.566Z,98821.20
2019-04-23T14:43:42.726Z,98862.86
2019-04-23T14:46:33.734Z,98863.56
2019-04-23T14:48:29.966Z,98835.53
2019-04-23T14:51:11.268Z,98836.91
2019-04-23T14:56:00.471Z,98814.99
2019-04-23T15:01:08.896Z,98823.09
2019-04-23T15:03:27.249Z,98832.43
2019-04-23T15:06:06.774Z,98823.12
2019-04-23T15:08:24.899Z,98839.23
2019-04-23T15:13:22.943Z,98843.02
2019-04-23T15:15:55.619Z,98883.45
2019-04-23T15:18:25.277Z,98848.41
2019-04-23T15:20:55.869Z,98845.93
2019-04-23T15:23:33.365Z,98852.84
2019-04-23T15:26:03.451Z,98834.97
2019-04-23T15:28:06.806Z,98840.22
2019-04-23T15:30:34.015Z,98856.95
2019-04-23T15:33:31.662Z,98846.52
2019-04-23T15:35:55.561Z,98859.84
2019-04-23T15:38:28.445Z,98946.94
2019-04-23T15:40:36.623Z,98878.61
2019-04-23T15:43:14.458Z,98887.75
2019-04-23T15:48:03.547Z,98864.60
2019-04-23T15:53:01.292Z,98893.64
2019-04-23T15:55:27.582Z,98848.75
2019-04-23T15:58:02.392Z,98860.20
2019-04-23T16:00:25.260Z,98856.31
2019-04-23T16:02:26.702Z,98870.19
2019-04-23T16:04:53.557Z,98878.20
2019-04-23T16:07:38.449Z,98859.50
2019-04-23T16:10:28.331Z,98866.50
2019-04-23T16:12:51.883Z,98860.33
2019-04-23T16:15:12.919Z,98874.52
2019-04-23T16:17:41.928Z,98870.39
2019-04-23T16:20:20.781Z,98894.16
2019-04-23T16:23:15.220Z,98870.72
2019-04-23T16:25:13.058Z,98874.56
2019-04-23T16:27:34.836Z,98866.03
2019-04-23T16:30:20.377Z,98873.64
2019-04-23T16:32:43.680Z,98864.08
2019-04-23T16:35:12.238Z,98883.77
2019-04-23T16:40:19.947Z,98869.80
2019-04-23T16:42:29.959Z,98877.05
2019-04-23T16:45:14.969Z,98871.27
2019-04-23T16:50:13.823Z,98841.39
2019-04-23T16:52:26.736Z,98864.09
2019-04-23T17:00:07.647Z,98862.89
2019-04-23T17:02:27.015Z,98862.70
2019-04-23T17:04:54.778Z,98856.42
2019-04-23T17:07:15.195Z,98857.38
2019-04-23T17:09:51.134Z,98863.34
2019-04-23T17:12:16.173Z,98857.12
2019-04-23T17:14:48.105Z,98857.31
2019-04-23T17:17:08.418Z,98843.44
2019-04-23T17:19:47.204Z,98870.86
2019-04-23T17:22:13.147Z,98865.49
2019-04-23T17:24:40.430Z,98849.40
2019-04-23T17:32:04.113Z,98853.83
2019-04-23T17:34:34.890Z,98839.83
2019-04-23T17:37:13.699Z,98865.58
2019-04-23T17:39:28.576Z,98857.74
2019-04-23T17:42:12.491Z,98859.69
2019-04-23T17:47:04.576Z,98861.65
2019-04-23T17:49:41.940Z,98862.27
2019-04-23T17:52:01.068Z,98858.27
2019-04-23T17:54:45.136Z,98859.70
2019-04-23T17:57:01.450Z,98859.34
2019-04-23T17:59:36.834Z,98861.42
2019-04-23T18:02:18.510Z,98870.94
2019-04-23T18:06:53.595Z,98862.14
2019-04-23T18:09:25.617Z,98881.56
2019-04-23T18:14:11.605Z,98876.05
2019-04-23T18:16:51.747Z,98855.42
2019-04-23T18:19:15.047Z,98883.98
2019-04-23T18:21:44.573Z,98874.18
2019-04-23T18:24:16.480Z,98873.59
2019-04-23T18:26:36.037Z,98874.80
2019-04-23T18:29:16.919Z,98867.81
2019-04-23T18:31:38.684Z,98870.89
2019-04-23T18:36:32.449Z,98896.78
2019-04-23T18:41:29.545Z,98868.37
2019-04-23T18:44:05.914Z,98877.44
2019-04-23T18:46:35.439Z,98887.23
2019-04-23T18:48:53.311Z,98882.19
2019-04-23T18:51:21.214Z,98882.41
2019-04-23T18:59:00.414Z,98878.78
2019-04-23T19:01:19.841Z,98874.44
2019-04-23T19:04:09.925Z,98893.30
2019-04-23T19:09:01.330Z,98884.97
2019-04-23T19:11:25.723Z,98889.50
2019-04-23T19:13:44.752Z,98884.34
2019-04-23T19:16:18.428Z,98890.63
2019-04-23T19:26:15.417Z,98909.38
2019-04-23T19:28:49.693Z,98886.81
2019-04-23T19:31:07.512Z,98904.05
2019-04-23T19:33:48.850Z,98901.67
2019-04-23T19:36:17.145Z,98907.83
2019-04-23T19:41:02.097Z,98915.78
2019-04-23T19:43:44.986Z,98903.83
2019-04-23T19:48:51.577Z,98902.56
2019-04-23T19:51:05.850Z,98902.13
2019-04-23T19:53:57.658Z,98915.08
2019-04-23T19:56:08.666Z,98905.91
2019-04-23T19:58:32.862Z,98907.95
2019-04-23T20:03:37.771Z,98891.16
2019-04-23T20:05:59.481Z,98894.67
2019-04-23T20:08:34.538Z,98909.75
2019-04-23T20:10:47.677Z,98926.22
2019-04-23T20:13:21.691Z,98897.25
2019-04-23T20:16:05.709Z,98932.74
2019-04-23T20:18:29.444Z,98912.23
2019-04-23T20:20:51.354Z,98909.47
2019-04-23T20:23:25.717Z,98906.00
2019-04-23T20:30:55.476Z,98908.09
2019-04-23T20:32:05.536Z,98908.09
2019-04-23T20:35:38.255Z,98915.49
2019-04-23T20:38:26.015Z,98925.98
2019-04-23T20:40:51.453Z,98895.55
2019-04-23T20:43:05.708Z,98900.05
2019-04-23T20:45:43.788Z,98909.44
2019-04-23T20:50:36.511Z,98897.46
2019-04-23T20:52:51.485Z,98917.27
2019-04-23T20:55:42.478Z,98898.73
2019-04-23T20:57:48.503Z,98955.89
2019-04-23T21:00:20.600Z,98887.95
2019-04-23T21:03:18.165Z,98898.10
2019-04-23T21:05:21.639Z,98909.88
2019-04-23T21:10:27.401Z,98904.77
2019-04-23T21:13:06.842Z,98899.48
2019-04-23T21:15:18.351Z,98894.14
2019-04-23T21:22:48.593Z,98882.63
2019-04-23T21:25:08.155Z,98883.04
2019-04-23T21:28:06.004Z,98892.09
2019-04-23T21:30:10.616Z,98880.66
2019-04-23T21:32:56.315Z,98876.69
2019-04-23T21:35:16.170Z,98876.65
2019-04-23T21:37:42.816Z,98867.00
2019-04-23T21:40:26.928Z,98887.95
2019-04-23T21:42:40.785Z,98883.41
2019-04-23T21:45:00.865Z,98886.73
2019-04-23T21:47:42.368Z,98870.39
2019-04-23T21:50:20.117Z,98878.69
2019-04-23T21:52:31.593Z,98871.36
2019-04-23T21:54:59.781Z,98876.98
2019-04-23T21:57:27.184Z,98883.73
2019-04-23T21:59:56.147Z,98877.14
2019-04-23T22:02:23.503Z,98872.44
2019-04-23T22:04:52.765Z,98868.08
2019-04-23T22:07:19.435Z,98874.91
2019-04-23T22:09:57.241Z,98861.75
2019-04-23T22:12:17.312Z,98874.36
2019-04-23T22:14:45.586Z,98858.52
2019-04-23T22:19:44.879Z,98862.96
2019-04-23T22:22:01.070Z,98862.59
2019-04-23T22:24:42.834Z,98856.84
2019-04-23T22:27:05.467Z,98852.57
2019-04-23T22:31:53.802Z,98848.44
2019-04-23T22:34:40.262Z,98835.13
2019-04-23T22:37:10.929Z,98830.16
2019-04-23T22:39:32.050Z,98833.94
2019-04-23T22:42:12.606Z,98837.44
2019-04-23T22:44:46.977Z,98828.00
2019-04-23T22:47:02.194Z,98838.28
2019-04-23T22:52:06.601Z,98839.98
2019-04-23T22:54:23.043Z,98834.38
2019-04-23T23:02:03.879Z,98834.23
2019-04-23T23:07:02.990Z,98824.80
2019-04-23T23:11:54.319Z,98821.34
2019-04-23T23:19:25.487Z,98846.65
2019-04-23T23:21:58.167Z,98819.77
2019-04-23T23:24:13.727Z,98824.41
2019-04-23T23:26:51.159Z,98802.33
2019-04-23T23:29:05.730Z,98800.77
2019-04-23T23:31:42.210Z,98809.72
2019-04-23T23:34:28.247Z,98805.52
2019-04-23T23:36:44.964Z,98802.63
2019-04-23T23:41:33.786Z,98802.22
2019-04-23T23:44:29.805Z,98805.91
2019-04-23T23:46:35.466Z,98800.50
2019-04-23T23:51:29.146Z,98795.25
2019-04-23T23:54:05.008Z,98794.75
2019-04-23T23:56:26.203Z,98785.49
2019-04-23T23:59:12.577Z,98785.22
